sensor_id;sensor_type;location;lat;lon;timestamp;P1;durP1;ratioP1;P2;durP2;ratioP2
53959;SDS011;39866;48.638;-2.020;2022-11-15T00:01:29;8.02;;;1.83;;
53959;SDS011;39866;48.638;-2.020;2022-11-15T00:03:54;5.60;;;1.60;;
53959;SDS011;39866;48.638;-2.020;2022-11-15T00:06:20;6.72;;;1.80;;
53959;SDS011;39866;48.638;-2.020;2022-11-15T00:08:46;7.38;;;2.05;;
53959;SDS011;39866;48.638;-2.020;2022-11-15T00:11:11;12.15;;;2.25;;
53959;SDS011;39866;48.638;-2.020;2022-11-15T00:13:37;9.45;;;1.80;;
53959;SDS011;39866;48.638;-2.020;2022-11-15T00:16:02;7.93;;;1.67;;
53959;SDS011;39866;48.638;-2.020;2022-11-15T00:18:28;6.22;;;1.60;;
53959;SDS011;39866;48.638;-2.020;2022-11-15T00:20:55;6.90;;;2.08;;
53959;SDS011;39866;48.638;-2.020;2022-11-15T00:23:21;7.80;;;1.90;;
53959;SDS011;39866;48.638;-2.020;2022-11-15T00:25:46;7.13;;;1.90;;
53959;SDS011;39866;48.638;-2.020;2022-11-15T00:28:12;6.53;;;1.70;;
53959;SDS011;39866;48.638;-2.020;2022-11-15T00:30:37;7.93;;;2.15;;
53959;SDS011;39866;48.638;-2.020;2022-11-15T00:33:06;9.43;;;1.90;;
53959;SDS011;39866;48.638;-2.020;2022-11-15T00:35:32;9.68;;;2.28;;
53959;SDS011;39866;48.638;-2.020;2022-11-15T00:37:59;8.43;;;1.90;;
53959;SDS011;39866;48.638;-2.020;2022-11-15T00:40:25;7.93;;;1.88;;
53959;SDS011;39866;48.638;-2.020;2022-11-15T00:42:51;8.95;;;1.95;;
53959;SDS011;39866;48.638;-2.020;2022-11-15T00:45:16;10.43;;;2.15;;
53959;SDS011;39866;48.638;-2.020;2022-11-15T00:47:43;6.35;;;1.83;;
53959;SDS011;39866;48.638;-2.020;2022-11-15T00:50:10;5.68;;;1.80;;
53959;SDS011;39866;48.638;-2.020;2022-11-15T00:52:35;11.77;;;2.20;;
53959;SDS011;39866;48.638;-2.020;2022-11-15T00:55:01;7.88;;;1.90;;
53959;SDS011;39866;48.638;-2.020;2022-11-15T00:57:26;11.60;;;2.00;;
53959;SDS011;39866;48.638;-2.020;2022-11-15T00:59:52;6.45;;;1.60;;
53959;SDS011;39866;48.638;-2.020;2022-11-15T01:02:17;11.75;;;1.45;;
53959;SDS011;39866;48.638;-2.020;2022-11-15T01:04:43;7.88;;;2.05;;
53959;SDS011;39866;48.638;-2.020;2022-11-15T01:07:08;9.07;;;1.75;;
53959;SDS011;39866;48.638;-2.020;2022-11-15T01:09:33;10.32;;;2.40;;
53959;SDS011;39866;48.638;-2.020;2022-11-15T01:11:59;7.47;;;1.75;;
53959;SDS011;39866;48.638;-2.020;2022-11-15T01:14:24;9.02;;;1.77;;
53959;SDS011;39866;48.638;-2.020;2022-11-15T01:16:49;8.25;;;1.65;;
53959;SDS011;39866;48.638;-2.020;2022-11-15T01:19:15;8.70;;;2.20;;
53959;SDS011;39866;48.638;-2.020;2022-11-15T01:21:40;8.75;;;2.13;;
53959;SDS011;39866;48.638;-2.020;2022-11-15T01:24:06;8.43;;;2.03;;
53959;SDS011;39866;48.638;-2.020;2022-11-15T01:26:32;9.65;;;2.03;;
53959;SDS011;39866;48.638;-2.020;2022-11-15T01:28:57;10.95;;;2.22;;
53959;SDS011;39866;48.638;-2.020;2022-11-15T01:31:23;11.00;;;2.17;;
53959;SDS011;39866;48.638;-2.020;2022-11-15T01:33:48;8.57;;;1.95;;
53959;SDS011;39866;48.638;-2.020;2022-11-15T01:36:14;7.28;;;1.92;;
53959;SDS011;39866;48.638;-2.020;2022-11-15T01:38:42;8.95;;;1.88;;
53959;SDS011;39866;48.638;-2.020;2022-11-15T01:41:13;13.88;;;2.42;;
53959;SDS011;39866;48.638;-2.020;2022-11-15T01:43:41;9.60;;;1.80;;
53959;SDS011;39866;48.638;-2.020;2022-11-15T01:46:52;11.48;;;2.42;;
53959;SDS011;39866;48.638;-2.020;2022-11-15T01:49:21;9.57;;;2.05;;
53959;SDS011;39866;48.638;-2.020;2022-11-15T01:51:47;9.13;;;1.98;;
53959;SDS011;39866;48.638;-2.020;2022-11-15T01:54:14;11.25;;;2.10;;
53959;SDS011;39866;48.638;-2.020;2022-11-15T01:56:43;11.13;;;2.42;;
53959;SDS011;39866;48.638;-2.020;2022-11-15T01:59:13;10.80;;;2.10;;
53959;SDS011;39866;48.638;-2.020;2022-11-15T02:01:39;13.23;;;2.42;;
53959;SDS011;39866;48.638;-2.020;2022-11-15T02:04:14;11.15;;;2.10;;
53959;SDS011;39866;48.638;-2.020;2022-11-15T02:06:42;12.60;;;2.08;;
53959;SDS011;39866;48.638;-2.020;2022-11-15T02:09:09;11.63;;;2.35;;
53959;SDS011;39866;48.638;-2.020;2022-11-15T02:11:35;8.45;;;2.15;;
53959;SDS011;39866;48.638;-2.020;2022-11-15T02:14:01;9.30;;;1.85;;
53959;SDS011;39866;48.638;-2.020;2022-11-15T02:25:03;9.93;;;2.25;;
53959;SDS011;39866;48.638;-2.020;2022-11-15T02:35:59;9.73;;;2.33;;
53959;SDS011;39866;48.638;-2.020;2022-11-15T02:41:24;8.60;;;2.10;;
53959;SDS011;39866;48.638;-2.020;2022-11-15T02:43:57;7.75;;;1.85;;
53959;SDS011;39866;48.638;-2.020;2022-11-15T02:49:22;14.02;;;2.50;;
53959;SDS011;39866;48.638;-2.020;2022-11-15T02:51:50;10.85;;;1.80;;
53959;SDS011;39866;48.638;-2.020;2022-11-15T02:54:20;12.43;;;1.98;;
53959;SDS011;39866;48.638;-2.020;2022-11-15T02:56:47;11.65;;;1.90;;
53959;SDS011;39866;48.638;-2.020;2022-11-15T03:04:37;10.90;;;2.00;;
53959;SDS011;39866;48.638;-2.020;2022-11-15T03:07:25;8.60;;;1.98;;
53959;SDS011;39866;48.638;-2.020;2022-11-15T03:12:49;6.43;;;1.50;;
53959;SDS011;39866;48.638;-2.020;2022-11-15T03:15:22;12.57;;;1.90;;
53959;SDS011;39866;48.638;-2.020;2022-11-15T03:17:59;12.55;;;1.90;;
53959;SDS011;39866;48.638;-2.020;2022-11-15T03:20:27;13.50;;;2.40;;
53959;SDS011;39866;48.638;-2.020;2022-11-15T03:22:55;10.70;;;1.85;;
53959;SDS011;39866;48.638;-2.020;2022-11-15T03:25:26;10.57;;;1.83;;
53959;SDS011;39866;48.638;-2.020;2022-11-15T03:27:55;8.77;;;1.80;;
53959;SDS011;39866;48.638;-2.020;2022-11-15T03:30:24;15.05;;;2.63;;
53959;SDS011;39866;48.638;-2.020;2022-11-15T03:32:58;9.77;;;1.67;;
53959;SDS011;39866;48.638;-2.020;2022-11-15T03:35:26;13.20;;;2.13;;
53959;SDS011;39866;48.638;-2.020;2022-11-15T03:40:53;9.27;;;1.95;;
53959;SDS011;39866;48.638;-2.020;2022-11-15T03:46:17;9.80;;;2.05;;
53959;SDS011;39866;48.638;-2.020;2022-11-15T03:48:50;10.73;;;1.77;;
53959;SDS011;39866;48.638;-2.020;2022-11-15T03:51:18;6.68;;;1.60;;
53959;SDS011;39866;48.638;-2.020;2022-11-15T03:53:44;9.80;;;1.85;;
53959;SDS011;39866;48.638;-2.020;2022-11-15T03:56:11;8.60;;;1.67;;
53959;SDS011;39866;48.638;-2.020;2022-11-15T03:58:36;9.65;;;1.85;;
53959;SDS011;39866;48.638;-2.020;2022-11-15T04:01:01;7.85;;;1.80;;
53959;SDS011;39866;48.638;-2.020;2022-11-15T04:03:27;8.52;;;1.88;;
53959;SDS011;39866;48.638;-2.020;2022-11-15T04:05:52;9.48;;;1.65;;
53959;SDS011;39866;48.638;-2.020;2022-11-15T04:08:17;12.15;;;2.13;;
53959;SDS011;39866;48.638;-2.020;2022-11-15T04:10:43;7.30;;;1.77;;
53959;SDS011;39866;48.638;-2.020;2022-11-15T04:13:08;9.18;;;1.58;;
53959;SDS011;39866;48.638;-2.020;2022-11-15T04:15:34;7.22;;;1.45;;
53959;SDS011;39866;48.638;-2.020;2022-11-15T04:18:00;5.05;;;1.50;;
53959;SDS011;39866;48.638;-2.020;2022-11-15T04:23:11;7.93;;;1.70;;
53959;SDS011;39866;48.638;-2.020;2022-11-15T04:25:58;7.35;;;1.63;;
53959;SDS011;39866;48.638;-2.020;2022-11-15T04:28:25;7.38;;;1.60;;
53959;SDS011;39866;48.638;-2.020;2022-11-15T04:30:50;6.72;;;1.77;;
53959;SDS011;39866;48.638;-2.020;2022-11-15T04:33:16;7.38;;;1.40;;
53959;SDS011;39866;48.638;-2.020;2022-11-15T04:35:42;8.07;;;1.83;;
53959;SDS011;39866;48.638;-2.020;2022-11-15T04:38:08;6.38;;;1.48;;
53959;SDS011;39866;48.638;-2.020;2022-11-15T04:40:35;7.18;;;1.40;;
53959;SDS011;39866;48.638;-2.020;2022-11-15T04:43:01;6.68;;;1.63;;
53959;SDS011;39866;48.638;-2.020;2022-11-15T04:45:27;4.20;;;1.13;;
53959;SDS011;39866;48.638;-2.020;2022-11-15T04:47:52;6.47;;;1.40;;
53959;SDS011;39866;48.638;-2.020;2022-11-15T04:50:17;6.05;;;1.33;;
53959;SDS011;39866;48.638;-2.020;2022-11-15T04:52:46;6.07;;;1.45;;
53959;SDS011;39866;48.638;-2.020;2022-11-15T04:55:16;5.78;;;1.23;;
53959;SDS011;39866;48.638;-2.020;2022-11-15T04:57:41;6.40;;;1.40;;
53959;SDS011;39866;48.638;-2.020;2022-11-15T05:00:11;8.25;;;1.52;;
53959;SDS011;39866;48.638;-2.020;2022-11-15T05:02:38;6.05;;;1.30;;
53959;SDS011;39866;48.638;-2.020;2022-11-15T05:05:23;7.07;;;1.42;;
53959;SDS011;39866;48.638;-2.020;2022-11-15T05:07:49;6.03;;;1.10;;
53959;SDS011;39866;48.638;-2.020;2022-11-15T05:10:14;3.92;;;1.05;;
53959;SDS011;39866;48.638;-2.020;2022-11-15T05:12:39;5.65;;;1.55;;
53959;SDS011;39866;48.638;-2.020;2022-11-15T05:15:05;4.88;;;1.10;;
53959;SDS011;39866;48.638;-2.020;2022-11-15T05:17:31;6.43;;;1.30;;
53959;SDS011;39866;48.638;-2.020;2022-11-15T05:19:56;3.85;;;1.13;;
53959;SDS011;39866;48.638;-2.020;2022-11-15T05:22:22;4.63;;;1.17;;
53959;SDS011;39866;48.638;-2.020;2022-11-15T05:24:47;4.97;;;1.40;;
53959;SDS011;39866;48.638;-2.020;2022-11-15T05:27:13;4.78;;;1.35;;
53959;SDS011;39866;48.638;-2.020;2022-11-15T05:29:38;4.50;;;1.08;;
53959;SDS011;39866;48.638;-2.020;2022-11-15T05:32:04;3.83;;;0.98;;
53959;SDS011;39866;48.638;-2.020;2022-11-15T05:34:31;3.78;;;0.95;;
53959;SDS011;39866;48.638;-2.020;2022-11-15T05:36:57;4.57;;;1.20;;
53959;SDS011;39866;48.638;-2.020;2022-11-15T05:39:23;5.65;;;1.10;;
53959;SDS011;39866;48.638;-2.020;2022-11-15T05:41:52;6.13;;;1.00;;
53959;SDS011;39866;48.638;-2.020;2022-11-15T05:44:21;3.35;;;0.90;;
53959;SDS011;39866;48.638;-2.020;2022-11-15T05:46:48;6.13;;;1.10;;
53959;SDS011;39866;48.638;-2.020;2022-11-15T05:49:18;2.75;;;0.80;;
53959;SDS011;39866;48.638;-2.020;2022-11-15T05:51:46;3.63;;;0.98;;
53959;SDS011;39866;48.638;-2.020;2022-11-15T05:54:13;3.65;;;0.90;;
53959;SDS011;39866;48.638;-2.020;2022-11-15T05:56:41;6.20;;;1.10;;
53959;SDS011;39866;48.638;-2.020;2022-11-15T05:59:07;4.40;;;1.15;;
53959;SDS011;39866;48.638;-2.020;2022-11-15T06:01:33;3.53;;;1.00;;
53959;SDS011;39866;48.638;-2.020;2022-11-15T06:03:59;4.20;;;1.10;;
53959;SDS011;39866;48.638;-2.020;2022-11-15T06:06:24;4.32;;;1.23;;
53959;SDS011;39866;48.638;-2.020;2022-11-15T06:08:52;3.13;;;1.00;;
53959;SDS011;39866;48.638;-2.020;2022-11-15T06:11:17;3.83;;;1.17;;
53959;SDS011;39866;48.638;-2.020;2022-11-15T06:13:42;4.28;;;1.13;;
53959;SDS011;39866;48.638;-2.020;2022-11-15T06:16:07;4.22;;;1.10;;
53959;SDS011;39866;48.638;-2.020;2022-11-15T06:18:33;5.45;;;1.23;;
53959;SDS011;39866;48.638;-2.020;2022-11-15T06:20:59;3.63;;;0.90;;
53959;SDS011;39866;48.638;-2.020;2022-11-15T06:23:25;3.70;;;0.80;;
53959;SDS011;39866;48.638;-2.020;2022-11-15T06:25:51;5.03;;;1.23;;
53959;SDS011;39866;48.638;-2.020;2022-11-15T06:28:17;2.85;;;0.88;;
53959;SDS011;39866;48.638;-2.020;2022-11-15T06:30:42;4.43;;;1.00;;
53959;SDS011;39866;48.638;-2.020;2022-11-15T06:33:07;3.90;;;1.10;;
53959;SDS011;39866;48.638;-2.020;2022-11-15T06:35:34;3.35;;;1.25;;
53959;SDS011;39866;48.638;-2.020;2022-11-15T06:38:18;6.18;;;1.20;;
53959;SDS011;39866;48.638;-2.020;2022-11-15T06:40:44;3.53;;;0.90;;
53959;SDS011;39866;48.638;-2.020;2022-11-15T06:43:09;4.00;;;1.13;;
53959;SDS011;39866;48.638;-2.020;2022-11-15T06:45:34;4.85;;;1.45;;
53959;SDS011;39866;48.638;-2.020;2022-11-15T06:48:00;3.40;;;0.82;;
53959;SDS011;39866;48.638;-2.020;2022-11-15T06:50:25;3.25;;;0.80;;
53959;SDS011;39866;48.638;-2.020;2022-11-15T06:52:51;3.70;;;1.02;;
53959;SDS011;39866;48.638;-2.020;2022-11-15T06:55:16;3.25;;;0.82;;
53959;SDS011;39866;48.638;-2.020;2022-11-15T06:57:48;3.67;;;1.02;;
53959;SDS011;39866;48.638;-2.020;2022-11-15T07:00:15;4.03;;;0.90;;
53959;SDS011;39866;48.638;-2.020;2022-11-15T07:02:42;3.90;;;0.95;;
53959;SDS011;39866;48.638;-2.020;2022-11-15T07:05:08;2.22;;;0.70;;
53959;SDS011;39866;48.638;-2.020;2022-11-15T07:07:33;3.55;;;1.05;;
53959;SDS011;39866;48.638;-2.020;2022-11-15T07:09:59;2.10;;;0.88;;
53959;SDS011;39866;48.638;-2.020;2022-11-15T07:12:24;3.83;;;0.82;;
53959;SDS011;39866;48.638;-2.020;2022-11-15T07:14:49;5.28;;;1.30;;
53959;SDS011;39866;48.638;-2.020;2022-11-15T07:17:14;3.63;;;1.10;;
53959;SDS011;39866;48.638;-2.020;2022-11-15T07:19:40;3.90;;;0.80;;
53959;SDS011;39866;48.638;-2.020;2022-11-15T07:22:05;5.75;;;1.05;;
53959;SDS011;39866;48.638;-2.020;2022-11-15T07:24:30;3.78;;;1.00;;
53959;SDS011;39866;48.638;-2.020;2022-11-15T07:26:56;3.10;;;0.80;;
53959;SDS011;39866;48.638;-2.020;2022-11-15T07:29:21;3.33;;;1.10;;
53959;SDS011;39866;48.638;-2.020;2022-11-15T07:31:46;2.55;;;0.90;;
53959;SDS011;39866;48.638;-2.020;2022-11-15T07:34:12;3.95;;;1.10;;
53959;SDS011;39866;48.638;-2.020;2022-11-15T07:36:37;2.70;;;0.82;;
53959;SDS011;39866;48.638;-2.020;2022-11-15T07:39:02;4.00;;;1.00;;
53959;SDS011;39866;48.638;-2.020;2022-11-15T07:41:28;2.53;;;0.73;;
53959;SDS011;39866;48.638;-2.020;2022-11-15T07:43:54;4.57;;;1.00;;
53959;SDS011;39866;48.638;-2.020;2022-11-15T07:46:19;3.08;;;1.10;;
53959;SDS011;39866;48.638;-2.020;2022-11-15T07:48:45;1.98;;;0.90;;
53959;SDS011;39866;48.638;-2.020;2022-11-15T07:51:11;2.90;;;0.82;;
53959;SDS011;39866;48.638;-2.020;2022-11-15T07:53:38;4.03;;;1.08;;
53959;SDS011;39866;48.638;-2.020;2022-11-15T07:56:05;3.60;;;1.00;;
53959;SDS011;39866;48.638;-2.020;2022-11-15T07:58:32;2.80;;;0.80;;
53959;SDS011;39866;48.638;-2.020;2022-11-15T08:00:57;3.80;;;1.10;;
53959;SDS011;39866;48.638;-2.020;2022-11-15T08:03:23;3.15;;;0.82;;
53959;SDS011;39866;48.638;-2.020;2022-11-15T08:05:51;4.45;;;1.00;;
53959;SDS011;39866;48.638;-2.020;2022-11-15T08:08:17;3.33;;;0.98;;
53959;SDS011;39866;48.638;-2.020;2022-11-15T08:10:42;2.22;;;0.80;;
53959;SDS011;39866;48.638;-2.020;2022-11-15T08:13:08;3.08;;;1.70;;
53959;SDS011;39866;48.638;-2.020;2022-11-15T08:15:35;3.08;;;0.95;;
53959;SDS011;39866;48.638;-2.020;2022-11-15T08:18:02;2.33;;;0.80;;
53959;SDS011;39866;48.638;-2.020;2022-11-15T08:20:33;2.08;;;0.60;;
53959;SDS011;39866;48.638;-2.020;2022-11-15T08:23:00;1.17;;;0.60;;
53959;SDS011;39866;48.638;-2.020;2022-11-15T08:25:27;2.00;;;0.80;;
53959;SDS011;39866;48.638;-2.020;2022-11-15T08:27:53;2.90;;;0.75;;
53959;SDS011;39866;48.638;-2.020;2022-11-15T08:30:20;1.30;;;0.60;;
53959;SDS011;39866;48.638;-2.020;2022-11-15T08:32:46;1.45;;;0.60;;
53959;SDS011;39866;48.638;-2.020;2022-11-15T08:35:12;2.20;;;0.82;;
53959;SDS011;39866;48.638;-2.020;2022-11-15T08:37:37;1.48;;;0.60;;
53959;SDS011;39866;48.638;-2.020;2022-11-15T08:40:03;1.55;;;0.45;;
53959;SDS011;39866;48.638;-2.020;2022-11-15T08:42:29;0.75;;;0.40;;
53959;SDS011;39866;48.638;-2.020;2022-11-15T08:44:54;2.38;;;0.57;;
53959;SDS011;39866;48.638;-2.020;2022-11-15T08:47:20;1.40;;;0.60;;
53959;SDS011;39866;48.638;-2.020;2022-11-15T08:49:45;2.47;;;0.77;;
53959;SDS011;39866;48.638;-2.020;2022-11-15T08:52:10;2.15;;;0.73;;
53959;SDS011;39866;48.638;-2.020;2022-11-15T08:54:36;1.80;;;0.70;;
53959;SDS011;39866;48.638;-2.020;2022-11-15T08:57:01;1.45;;;0.40;;
53959;SDS011;39866;48.638;-2.020;2022-11-15T08:59:26;1.13;;;0.40;;
53959;SDS011;39866;48.638;-2.020;2022-11-15T09:01:52;1.58;;;0.60;;
53959;SDS011;39866;48.638;-2.020;2022-11-15T09:04:17;1.73;;;0.50;;
53959;SDS011;39866;48.638;-2.020;2022-11-15T09:06:43;2.13;;;0.50;;
53959;SDS011;39866;48.638;-2.020;2022-11-15T09:09:08;3.40;;;0.90;;
53959;SDS011;39866;48.638;-2.020;2022-11-15T09:11:33;1.88;;;0.50;;
53959;SDS011;39866;48.638;-2.020;2022-11-15T09:13:59;2.42;;;0.65;;
53959;SDS011;39866;48.638;-2.020;2022-11-15T09:16:24;2.75;;;0.60;;
53959;SDS011;39866;48.638;-2.020;2022-11-15T09:18:49;1.45;;;0.60;;
53959;SDS011;39866;48.638;-2.020;2022-11-15T09:21:15;1.85;;;0.70;;
53959;SDS011;39866;48.638;-2.020;2022-11-15T09:23:40;1.98;;;0.40;;
53959;SDS011;39866;48.638;-2.020;2022-11-15T09:26:05;1.60;;;0.70;;
53959;SDS011;39866;48.638;-2.020;2022-11-15T09:28:32;1.35;;;0.40;;
53959;SDS011;39866;48.638;-2.020;2022-11-15T09:31:01;1.58;;;0.50;;
53959;SDS011;39866;48.638;-2.020;2022-11-15T09:33:28;4.47;;;0.77;;
53959;SDS011;39866;48.638;-2.020;2022-11-15T09:35:53;1.23;;;0.40;;
53959;SDS011;39866;48.638;-2.020;2022-11-15T09:38:23;2.35;;;0.75;;
53959;SDS011;39866;48.638;-2.020;2022-11-15T09:40:50;3.50;;;0.60;;
53959;SDS011;39866;48.638;-2.020;2022-11-15T09:48:59;1.92;;;0.50;;
53959;SDS011;39866;48.638;-2.020;2022-11-15T09:51:30;3.15;;;0.70;;
53959;SDS011;39866;48.638;-2.020;2022-11-15T09:56:37;3.88;;;1.02;;
53959;SDS011;39866;48.638;-2.020;2022-11-15T10:04:59;3.88;;;1.00;;
53959;SDS011;39866;48.638;-2.020;2022-11-15T10:10:36;4.05;;;1.05;;
53959;SDS011;39866;48.638;-2.020;2022-11-15T10:13:04;2.47;;;0.80;;
53959;SDS011;39866;48.638;-2.020;2022-11-15T10:15:29;2.38;;;0.70;;
53959;SDS011;39866;48.638;-2.020;2022-11-15T10:20:42;1.00;;;0.43;;
53959;SDS011;39866;48.638;-2.020;2022-11-15T10:23:13;3.65;;;0.70;;
53959;SDS011;39866;48.638;-2.020;2022-11-15T10:25:41;1.30;;;0.47;;
53959;SDS011;39866;48.638;-2.020;2022-11-15T10:28:14;1.65;;;0.50;;
53959;SDS011;39866;48.638;-2.020;2022-11-15T10:30:46;3.20;;;0.90;;
53959;SDS011;39866;48.638;-2.020;2022-11-15T10:35:45;1.67;;;0.40;;
53959;SDS011;39866;48.638;-2.020;2022-11-15T10:38:11;0.75;;;0.30;;
53959;SDS011;39866;48.638;-2.020;2022-11-15T10:40:38;1.77;;;0.60;;
53959;SDS011;39866;48.638;-2.020;2022-11-15T10:45:35;3.50;;;0.65;;
53959;SDS011;39866;48.638;-2.020;2022-11-15T10:50:45;1.35;;;0.60;;
53959;SDS011;39866;48.638;-2.020;2022-11-15T10:53:22;9.57;;;1.45;;
53959;SDS011;39866;48.638;-2.020;2022-11-15T10:55:53;2.80;;;0.60;;
53959;SDS011;39866;48.638;-2.020;2022-11-15T10:58:30;2.70;;;0.70;;
53959;SDS011;39866;48.638;-2.020;2022-11-15T11:04:01;3.00;;;0.80;;
53959;SDS011;39866;48.638;-2.020;2022-11-15T11:06:27;1.58;;;0.40;;
53959;SDS011;39866;48.638;-2.020;2022-11-15T11:09:00;2.88;;;0.68;;
53959;SDS011;39866;48.638;-2.020;2022-11-15T11:11:47;3.30;;;0.98;;
53959;SDS011;39866;48.638;-2.020;2022-11-15T11:14:27;3.22;;;0.95;;
53959;SDS011;39866;48.638;-2.020;2022-11-15T11:20:16;2.42;;;1.00;;
53959;SDS011;39866;48.638;-2.020;2022-11-15T11:28:04;4.68;;;0.95;;
53959;SDS011;39866;48.638;-2.020;2022-11-15T11:31:04;3.42;;;1.00;;
53959;SDS011;39866;48.638;-2.020;2022-11-15T11:47:38;3.13;;;1.10;;
53959;SDS011;39866;48.638;-2.020;2022-11-15T11:50:15;4.18;;;1.10;;
53959;SDS011;39866;48.638;-2.020;2022-11-15T11:55:20;4.20;;;1.13;;
53959;SDS011;39866;48.638;-2.020;2022-11-15T12:01:00;4.20;;;0.90;;
53959;SDS011;39866;48.638;-2.020;2022-11-15T12:09:03;6.30;;;1.38;;
53959;SDS011;39866;48.638;-2.020;2022-11-15T12:11:47;5.55;;;1.30;;
53959;SDS011;39866;48.638;-2.020;2022-11-15T12:16:55;9.23;;;1.83;;
53959;SDS011;39866;48.638;-2.020;2022-11-15T12:19:21;8.20;;;1.55;;
53959;SDS011;39866;48.638;-2.020;2022-11-15T12:22:10;6.82;;;1.98;;
53959;SDS011;39866;48.638;-2.020;2022-11-15T12:24:49;4.47;;;1.27;;
53959;SDS011;39866;48.638;-2.020;2022-11-15T12:27:22;4.68;;;1.27;;
53959;SDS011;39866;48.638;-2.020;2022-11-15T12:30:15;7.03;;;1.30;;
53959;SDS011;39866;48.638;-2.020;2022-11-15T12:32:54;6.10;;;1.42;;
53959;SDS011;39866;48.638;-2.020;2022-11-15T12:37:49;7.53;;;1.52;;
53959;SDS011;39866;48.638;-2.020;2022-11-15T12:45:36;6.40;;;1.40;;
53959;SDS011;39866;48.638;-2.020;2022-11-15T12:50:56;7.80;;;1.60;;
53959;SDS011;39866;48.638;-2.020;2022-11-15T13:12:04;7.13;;;1.60;;
53959;SDS011;39866;48.638;-2.020;2022-11-15T13:17:15;7.32;;;2.30;;
53959;SDS011;39866;48.638;-2.020;2022-11-15T13:19:48;7.97;;;1.63;;
53959;SDS011;39866;48.638;-2.020;2022-11-15T13:22:22;7.60;;;1.70;;
53959;SDS011;39866;48.638;-2.020;2022-11-15T13:25:14;5.95;;;1.90;;
53959;SDS011;39866;48.638;-2.020;2022-11-15T13:27:44;7.95;;;1.85;;
53959;SDS011;39866;48.638;-2.020;2022-11-15T13:30:30;11.00;;;1.83;;
53959;SDS011;39866;48.638;-2.020;2022-11-15T13:32:57;8.35;;;1.70;;
53959;SDS011;39866;48.638;-2.020;2022-11-15T13:35:32;5.90;;;1.50;;
53959;SDS011;39866;48.638;-2.020;2022-11-15T13:38:04;8.25;;;1.58;;
53959;SDS011;39866;48.638;-2.020;2022-11-15T13:40:36;7.25;;;1.67;;
53959;SDS011;39866;48.638;-2.020;2022-11-15T13:46:03;4.63;;;1.27;;
53959;SDS011;39866;48.638;-2.020;2022-11-15T13:48:34;3.97;;;1.30;;
53959;SDS011;39866;48.638;-2.020;2022-11-15T13:51:00;6.18;;;1.65;;
53959;SDS011;39866;48.638;-2.020;2022-11-15T13:53:29;5.03;;;1.50;;
53959;SDS011;39866;48.638;-2.020;2022-11-15T13:55:57;4.15;;;1.10;;
53959;SDS011;39866;48.638;-2.020;2022-11-15T13:58:23;7.55;;;1.35;;
53959;SDS011;39866;48.638;-2.020;2022-11-15T14:00:48;7.13;;;2.03;;
53959;SDS011;39866;48.638;-2.020;2022-11-15T14:03:25;4.63;;;1.25;;
53959;SDS011;39866;48.638;-2.020;2022-11-15T14:08:35;6.10;;;1.38;;
53959;SDS011;39866;48.638;-2.020;2022-11-15T14:13:34;4.35;;;1.20;;
53959;SDS011;39866;48.638;-2.020;2022-11-15T14:16:13;4.13;;;1.10;;
53959;SDS011;39866;48.638;-2.020;2022-11-15T14:18:50;4.88;;;1.23;;
53959;SDS011;39866;48.638;-2.020;2022-11-15T14:21:18;4.80;;;1.40;;
53959;SDS011;39866;48.638;-2.020;2022-11-15T14:23:44;6.00;;;1.45;;
53959;SDS011;39866;48.638;-2.020;2022-11-15T14:26:29;3.67;;;1.10;;
53959;SDS011;39866;48.638;-2.020;2022-11-15T14:28:56;6.07;;;1.45;;
53959;SDS011;39866;48.638;-2.020;2022-11-15T14:31:22;6.68;;;1.38;;
53959;SDS011;39866;48.638;-2.020;2022-11-15T14:33:47;7.75;;;1.20;;
53959;SDS011;39866;48.638;-2.020;2022-11-15T14:36:18;6.45;;;1.38;;
53959;SDS011;39866;48.638;-2.020;2022-11-15T14:38:45;6.07;;;1.30;;
53959;SDS011;39866;48.638;-2.020;2022-11-15T14:41:24;3.75;;;0.98;;
53959;SDS011;39866;48.638;-2.020;2022-11-15T14:43:51;2.83;;;1.10;;
53959;SDS011;39866;48.638;-2.020;2022-11-15T14:46:17;4.38;;;1.45;;
53959;SDS011;39866;48.638;-2.020;2022-11-15T14:48:43;5.78;;;0.88;;
53959;SDS011;39866;48.638;-2.020;2022-11-15T14:51:18;4.95;;;1.10;;
53959;SDS011;39866;48.638;-2.020;2022-11-15T14:53:44;4.60;;;0.90;;
53959;SDS011;39866;48.638;-2.020;2022-11-15T14:56:10;4.60;;;0.90;;
53959;SDS011;39866;48.638;-2.020;2022-11-15T14:58:36;4.22;;;0.85;;
53959;SDS011;39866;48.638;-2.020;2022-11-15T15:01:03;4.05;;;1.00;;
53959;SDS011;39866;48.638;-2.020;2022-11-15T15:03:53;4.93;;;1.10;;
53959;SDS011;39866;48.638;-2.020;2022-11-15T15:06:21;3.60;;;1.15;;
53959;SDS011;39866;48.638;-2.020;2022-11-15T15:08:47;4.47;;;1.10;;
53959;SDS011;39866;48.638;-2.020;2022-11-15T15:11:14;5.28;;;1.02;;
53959;SDS011;39866;48.638;-2.020;2022-11-15T15:13:41;6.45;;;0.98;;
53959;SDS011;39866;48.638;-2.020;2022-11-15T15:16:07;7.13;;;1.35;;
53959;SDS011;39866;48.638;-2.020;2022-11-15T15:18:32;3.85;;;0.88;;
53959;SDS011;39866;48.638;-2.020;2022-11-15T15:20:58;8.38;;;1.40;;
53959;SDS011;39866;48.638;-2.020;2022-11-15T15:23:32;5.70;;;1.70;;
53959;SDS011;39866;48.638;-2.020;2022-11-15T15:25:58;9.02;;;1.70;;
53959;SDS011;39866;48.638;-2.020;2022-11-15T15:28:23;7.88;;;1.52;;
53959;SDS011;39866;48.638;-2.020;2022-11-15T15:30:49;5.10;;;1.33;;
53959;SDS011;39866;48.638;-2.020;2022-11-15T15:33:14;5.63;;;1.30;;
53959;SDS011;39866;48.638;-2.020;2022-11-15T15:35:40;4.20;;;1.42;;
53959;SDS011;39866;48.638;-2.020;2022-11-15T15:38:08;4.55;;;1.38;;
53959;SDS011;39866;48.638;-2.020;2022-11-15T15:40:36;5.10;;;1.65;;
53959;SDS011;39866;48.638;-2.020;2022-11-15T15:43:02;5.55;;;1.50;;
53959;SDS011;39866;48.638;-2.020;2022-11-15T15:45:27;5.25;;;1.33;;
53959;SDS011;39866;48.638;-2.020;2022-11-15T15:47:54;7.53;;;2.55;;
53959;SDS011;39866;48.638;-2.020;2022-11-15T15:52:48;7.32;;;1.50;;
53959;SDS011;39866;48.638;-2.020;2022-11-15T15:55:15;4.88;;;1.40;;
53959;SDS011;39866;48.638;-2.020;2022-11-15T15:57:40;5.70;;;1.33;;
53959;SDS011;39866;48.638;-2.020;2022-11-15T16:00:06;5.88;;;1.50;;
53959;SDS011;39866;48.638;-2.020;2022-11-15T16:02:32;6.55;;;1.60;;
53959;SDS011;39866;48.638;-2.020;2022-11-15T16:04:57;7.28;;;1.77;;
53959;SDS011;39866;48.638;-2.020;2022-11-15T16:07:23;4.57;;;1.40;;
53959;SDS011;39866;48.638;-2.020;2022-11-15T16:09:48;5.72;;;1.55;;
53959;SDS011;39866;48.638;-2.020;2022-11-15T16:12:27;6.18;;;1.67;;
53959;SDS011;39866;48.638;-2.020;2022-11-15T16:14:57;7.53;;;1.60;;
53959;SDS011;39866;48.638;-2.020;2022-11-15T16:17:24;7.38;;;2.00;;
53959;SDS011;39866;48.638;-2.020;2022-11-15T16:19:51;5.70;;;1.50;;
53959;SDS011;39866;48.638;-2.020;2022-11-15T16:22:17;11.43;;;2.03;;
53959;SDS011;39866;48.638;-2.020;2022-11-15T16:24:42;7.88;;;2.10;;
53959;SDS011;39866;48.638;-2.020;2022-11-15T16:27:17;8.05;;;1.80;;
53959;SDS011;39866;48.638;-2.020;2022-11-15T16:29:45;6.07;;;1.80;;
53959;SDS011;39866;48.638;-2.020;2022-11-15T16:32:11;8.65;;;2.20;;
53959;SDS011;39866;48.638;-2.020;2022-11-15T16:34:37;5.57;;;1.60;;
53959;SDS011;39866;48.638;-2.020;2022-11-15T16:37:03;6.50;;;1.80;;
53959;SDS011;39866;48.638;-2.020;2022-11-15T16:39:28;6.70;;;1.73;;
53959;SDS011;39866;48.638;-2.020;2022-11-15T16:41:58;8.43;;;2.05;;
53959;SDS011;39866;48.638;-2.020;2022-11-15T16:44:24;8.85;;;2.20;;
53959;SDS011;39866;48.638;-2.020;2022-11-15T16:46:50;8.52;;;1.98;;
53959;SDS011;39866;48.638;-2.020;2022-11-15T16:49:16;6.50;;;1.63;;
53959;SDS011;39866;48.638;-2.020;2022-11-15T16:51:45;9.50;;;2.17;;
53959;SDS011;39866;48.638;-2.020;2022-11-15T16:54:14;7.18;;;2.25;;
53959;SDS011;39866;48.638;-2.020;2022-11-15T16:56:40;9.30;;;2.60;;
53959;SDS011;39866;48.638;-2.020;2022-11-15T16:59:06;9.13;;;2.75;;
53959;SDS011;39866;48.638;-2.020;2022-11-15T17:01:34;11.82;;;2.53;;
53959;SDS011;39866;48.638;-2.020;2022-11-15T17:04:02;9.82;;;2.20;;
53959;SDS011;39866;48.638;-2.020;2022-11-15T17:06:37;11.32;;;2.72;;
53959;SDS011;39866;48.638;-2.020;2022-11-15T17:09:03;14.20;;;2.58;;